createdAt,value
2022-10-01T00:01:15.307Z,100525.13
2022-10-01T00:03:43.080Z,100527.53
2022-10-01T00:06:20.926Z,100521.13
2022-10-01T00:08:49.718Z,100532.28
2022-10-01T00:11:22.212Z,100527.22
2022-10-01T00:13:50.336Z,100512.84
2022-10-01T00:16:22.526Z,100519.31
2022-10-01T00:18:50.511Z,100515.13
2022-10-01T00:21:25.776Z,100522.84
2022-10-01T00:23:58.313Z,100522.03
2022-10-01T00:26:28.865Z,100514.94
2022-10-01T00:29:00.225Z,100520.84
2022-10-01T00:31:28.310Z,100523.59
2022-10-01T00:33:58.363Z,100517.66
2022-10-01T00:36:26.521Z,100514.25
2022-10-01T00:38:53.415Z,100514.50
2022-10-01T00:41:20.164Z,100511.19
2022-10-01T00:43:58.026Z,100502.91
2022-10-01T00:46:34.445Z,100492.78
2022-10-01T00:49:05.811Z,100496.25
2022-10-01T00:51:39.709Z,100501.44
2022-10-01T00:54:11.812Z,100496.53
2022-10-01T00:56:39.592Z,100498.09
2022-10-01T00:59:07.545Z,100503.41
2022-10-01T01:01:37.574Z,100494.78
2022-10-01T01:04:16.628Z,100489.47
2022-10-01T01:06:47.800Z,100488.34
2022-10-01T01:09:15.623Z,100486.44
2022-10-01T01:12:01.570Z,100483.78
2022-10-01T01:14:41.840Z,100487.59
2022-10-01T01:17:18.003Z,100484.00
2022-10-01T01:20:13.101Z,100480.69
2022-10-01T01:22:50.900Z,100476.72
2022-10-01T01:25:25.856Z,100483.56
2022-10-01T01:28:32.964Z,100477.66
2022-10-01T01:31:14.693Z,100476.91
2022-10-01T01:33:46.206Z,100468.34
2022-10-01T01:36:19.147Z,100463.81
2022-10-01T01:38:55.013Z,100467.16
2022-10-01T01:41:27.084Z,100466.13
2022-10-01T01:43:56.730Z,100455.75
2022-10-01T01:46:33.933Z,100452.16
2022-10-01T01:49:04.317Z,100447.69
2022-10-01T01:51:31.732Z,100455.31
2022-10-01T01:53:59.313Z,100449.22
2022-10-01T01:56:26.357Z,100453.13
2022-10-01T01:58:54.144Z,100449.69
2022-10-01T02:01:40.592Z,100450.38
2022-10-01T02:04:15.820Z,100454.44
2022-10-01T02:07:01.556Z,100455.06
2022-10-01T02:09:40.320Z,100453.03
2022-10-01T02:12:22.228Z,100452.09
2022-10-01T02:15:01.042Z,100448.28
2022-10-01T02:17:39.764Z,100452.50
2022-10-01T02:20:15.649Z,100442.81
2022-10-01T02:22:49.960Z,100449.75
2022-10-01T02:25:19.370Z,100453.06
2022-10-01T02:27:56.223Z,100453.13
2022-10-01T02:30:23.297Z,100449.44
2022-10-01T02:32:51.479Z,100449.31
2022-10-01T02:35:19.621Z,100445.88
2022-10-01T02:37:50.583Z,100449.38
2022-10-01T02:40:21.088Z,100448.47
2022-10-01T02:42:53.121Z,100450.22
2022-10-01T02:45:23.689Z,100451.75
2022-10-01T02:48:00.655Z,100446.72
2022-10-01T02:50:32.416Z,100443.97
2022-10-01T02:53:07.237Z,100440.44
2022-10-01T02:55:37.985Z,100439.41
2022-10-01T02:58:05.161Z,100434.50
2022-10-01T03:00:32.057Z,100429.91
2022-10-01T03:02:58.683Z,100431.44
2022-10-01T03:05:25.459Z,100431.03
2022-10-01T03:07:52.918Z,100418.66
2022-10-01T03:10:19.911Z,100418.34
2022-10-01T03:12:46.843Z,100424.91
2022-10-01T03:15:16.813Z,100416.09
2022-10-01T03:17:43.518Z,100413.59
2022-10-01T03:20:12.027Z,100407.47
2022-10-01T03:22:38.820Z,100407.69
2022-10-01T03:25:05.891Z,100402.59
2022-10-01T03:27:32.746Z,100406.94
2022-10-01T03:29:59.439Z,100405.03
2022-10-01T03:32:26.415Z,100390.28
2022-10-01T03:34:53.034Z,100383.75
2022-10-01T03:37:19.716Z,100385.78
2022-10-01T03:39:46.868Z,100374.44
2022-10-01T03:42:13.549Z,100379.25
2022-10-01T03:44:40.323Z,100377.00
2022-10-01T03:47:07.078Z,100362.16
2022-10-01T03:49:34.735Z,100372.91
2022-10-01T03:52:02.457Z,100361.66
2022-10-01T03:54:31.680Z,100370.59
2022-10-01T03:56:58.860Z,100375.53
2022-10-01T03:59:27.268Z,100367.66
2022-10-01T04:01:54.892Z,100380.47
2022-10-01T04:04:21.515Z,100378.81
2022-10-01T04:06:48.175Z,100373.63
2022-10-01T04:09:14.753Z,100366.06
2022-10-01T04:11:41.491Z,100365.22
2022-10-01T04:14:08.773Z,100364.38
2022-10-01T04:16:36.426Z,100355.81
2022-10-01T04:19:04.815Z,100357.34
2022-10-01T04:21:31.890Z,100342.91
2022-10-01T04:24:00.034Z,100357.66
2022-10-01T04:26:27.150Z,100353.47
2022-10-01T04:28:53.749Z,100353.78
2022-10-01T04:31:26.534Z,100357.91
2022-10-01T04:33:55.364Z,100349.09
2022-10-01T04:36:24.275Z,100347.97
2022-10-01T04:38:57.959Z,100350.78
2022-10-01T04:41:27.752Z,100351.00
2022-10-01T04:43:54.462Z,100348.06
2022-10-01T04:46:21.274Z,100346.91
2022-10-01T04:48:49.336Z,100347.66
2022-10-01T04:51:16.944Z,100345.72
2022-10-01T04:53:44.315Z,100349.31
2022-10-01T04:56:10.934Z,100344.03
2022-10-01T04:58:38.621Z,100335.13
2022-10-01T05:01:05.438Z,100343.53
2022-10-01T05:03:33.083Z,100339.06
2022-10-01T05:05:59.777Z,100332.75
2022-10-01T05:08:26.450Z,100339.56
2022-10-01T05:10:53.347Z,100338.63
2022-10-01T05:13:20.022Z,100332.22
2022-10-01T05:15:49.768Z,100329.69
2022-10-01T05:18:16.365Z,100329.28
2022-10-01T05:20:42.996Z,100325.72
2022-10-01T05:23:10.301Z,100330.50
2022-10-01T05:25:37.262Z,100318.47
2022-10-01T05:28:05.538Z,100323.16
2022-10-01T05:30:33.520Z,100318.88
2022-10-01T05:33:02.114Z,100328.56
2022-10-01T05:35:29.279Z,100319.72
2022-10-01T05:37:57.851Z,100321.31
2022-10-01T05:40:27.480Z,100294.25
2022-10-01T05:42:56.158Z,100313.53
2022-10-01T05:45:23.630Z,100298.91
2022-10-01T05:47:58.666Z,100299.84
2022-10-01T05:50:25.848Z,100299.66
2022-10-01T05:52:54.817Z,100300.31
2022-10-01T05:55:22.387Z,100290.59
2022-10-01T05:58:04.069Z,100284.22
2022-10-01T06:00:32.585Z,100270.81
2022-10-01T06:03:00.849Z,100273.34
2022-10-01T06:05:29.009Z,100275.16
2022-10-01T06:07:56.822Z,100274.22
2022-10-01T06:10:24.704Z,100271.66
2022-10-01T06:12:52.039Z,100271.44
2022-10-01T06:15:18.944Z,100267.47
2022-10-01T06:17:45.789Z,100259.91
2022-10-01T06:20:19.119Z,100260.31
2022-10-01T06:22:55.057Z,100259.09
2022-10-01T06:25:22.206Z,100248.50
2022-10-01T06:27:58.270Z,100258.69
2022-10-01T06:30:29.437Z,100256.91
2022-10-01T06:33:08.513Z,100256.38
2022-10-01T06:35:39.654Z,100252.16
2022-10-01T06:38:06.717Z,100248.38
2022-10-01T06:40:33.631Z,100256.88
2022-10-01T06:43:00.371Z,100246.94
2022-10-01T06:45:28.930Z,100239.44
2022-10-01T06:47:57.681Z,100236.09
2022-10-01T06:50:25.624Z,100229.28
2022-10-01T06:52:52.916Z,100222.72
2022-10-01T06:55:21.832Z,100218.03
2022-10-01T06:57:54.887Z,100206.34
2022-10-01T07:00:21.554Z,100218.03
2022-10-01T07:02:48.307Z,100216.69
2022-10-01T07:05:15.439Z,100213.66
2022-10-01T07:07:42.115Z,100207.69
2022-10-01T07:10:09.977Z,100215.31
2022-10-01T07:12:37.654Z,100205.38
2022-10-01T07:15:06.354Z,100200.47
2022-10-01T07:17:33.242Z,100195.34
2022-10-01T07:20:01.780Z,100194.28
2022-10-01T07:22:28.416Z,100181.09
2022-10-01T07:24:55.175Z,100178.69
2022-10-01T07:27:21.948Z,100177.63
2022-10-01T07:29:48.822Z,100169.94
2022-10-01T07:32:15.860Z,100164.31
2022-10-01T07:34:42.813Z,100170.91
2022-10-01T07:37:09.851Z,100161.13
2022-10-01T07:39:37.179Z,100158.25
2022-10-01T07:42:04.508Z,100161.75
2022-10-01T07:44:31.452Z,100151.19
2022-10-01T07:46:59.068Z,100146.78
2022-10-01T07:49:26.213Z,100154.81
2022-10-01T07:51:54.726Z,100156.03
2022-10-01T07:54:22.826Z,100147.84
2022-10-01T07:56:52.846Z,100144.84
2022-10-01T07:59:20.067Z,100128.56
2022-10-01T08:01:53.672Z,100125.59
2022-10-01T08:04:40.173Z,100129.28
2022-10-01T08:07:08.496Z,100127.09
2022-10-01T08:09:35.726Z,100130.06
2022-10-01T08:12:05.933Z,100123.38
2022-10-01T08:14:32.557Z,100117.44
2022-10-01T08:16:59.225Z,100110.28
2022-10-01T08:19:26.134Z,100114.91
2022-10-01T08:21:53.287Z,100116.59
2022-10-01T08:24:20.311Z,100108.63
2022-10-01T08:26:52.365Z,100105.31
2022-10-01T08:29:18.963Z,100113.75
2022-10-01T08:31:45.661Z,100104.22
2022-10-01T08:34:12.274Z,100106.94
2022-10-01T08:36:38.908Z,100106.69
2022-10-01T08:39:05.534Z,100111.00
2022-10-01T08:41:44.076Z,100104.88
2022-10-01T08:44:21.778Z,100103.09
2022-10-01T08:46:50.478Z,100094.25
2022-10-01T08:49:33.264Z,100092.66
2022-10-01T08:52:07.499Z,100088.00
2022-10-01T08:54:40.858Z,100089.03
2022-10-01T08:57:14.622Z,100085.38
2022-10-01T08:59:44.888Z,100070.72
2022-10-01T09:02:38.189Z,100074.03
2022-10-01T09:05:24.992Z,100064.28
2022-10-01T09:08:17.888Z,100058.66
2022-10-01T09:10:47.016Z,100059.59
2022-10-01T09:13:39.492Z,100053.41
2022-10-01T09:16:06.232Z,100032.28
2022-10-01T09:18:54.659Z,100033.38
2022-10-01T09:21:36.643Z,100022.03
2022-10-01T09:24:10.433Z,100026.16
2022-10-01T09:26:40.796Z,100022.47
2022-10-01T09:29:15.080Z,100026.03
2022-10-01T09:31:47.473Z,100025.06
2022-10-01T09:34:19.658Z,100013.41
2022-10-01T09:37:05.734Z,100008.97
2022-10-01T09:39:39.693Z,100006.16
2022-10-01T09:42:06.843Z,100004.50
2022-10-01T09:44:34.462Z,99989.78
2022-10-01T09:47:01.172Z,99991.63
2022-10-01T09:49:28.008Z,99980.47
2022-10-01T09:52:02.825Z,99983.59
2022-10-01T09:54:44.934Z,99973.00
2022-10-01T09:57:18.666Z,99978.28
2022-10-01T10:00:12.103Z,99968.19
2022-10-01T10:02:49.384Z,99962.28
2022-10-01T10:05:19.289Z,99965.09
2022-10-01T10:07:46.844Z,99961.91
2022-10-01T10:10:16.761Z,99970.22
2022-10-01T10:12:44.489Z,99981.75
2022-10-01T10:15:18.009Z,99959.06
2022-10-01T10:17:49.299Z,99960.47
2022-10-01T10:20:25.717Z,99972.72
2022-10-01T10:22:53.110Z,99973.59
2022-10-01T10:25:22.757Z,99974.31
2022-10-01T10:27:57.237Z,99963.59
2022-10-01T10:30:24.974Z,99963.25
2022-10-01T10:33:02.641Z,99955.19
2022-10-01T10:35:30.036Z,99946.88
2022-10-01T10:37:57.744Z,99955.03
2022-10-01T10:40:32.251Z,99948.75
2022-10-01T10:42:59.815Z,99954.84
2022-10-01T10:45:36.847Z,99946.53
2022-10-01T10:48:07.182Z,99946.03
2022-10-01T10:50:38.568Z,99929.88
2022-10-01T10:53:20.050Z,99928.31
2022-10-01T10:56:05.901Z,99936.69
2022-10-01T10:58:35.044Z,99941.06
2022-10-01T11:01:12.200Z,99949.84
2022-10-01T11:03:44.359Z,99942.41
2022-10-01T11:06:14.869Z,99937.41
2022-10-01T11:08:43.277Z,99923.63
2022-10-01T11:11:21.862Z,99935.25
2022-10-01T11:14:18.070Z,99937.34
2022-10-01T11:17:05.052Z,99928.25
2022-10-01T11:20:03.635Z,99921.44
2022-10-01T11:22:54.977Z,99920.94
2022-10-01T11:25:50.633Z,99929.13
2022-10-01T11:29:01.326Z,99912.63
2022-10-01T11:32:03.007Z,99916.09
2022-10-01T11:34:39.956Z,99908.13
2022-10-01T11:37:30.049Z,99911.31
2022-10-01T11:40:02.974Z,99907.66
2022-10-01T11:42:35.588Z,99910.41
2022-10-01T11:45:21.346Z,99904.25
2022-10-01T11:47:55.682Z,99900.91
2022-10-01T11:50:27.144Z,99914.88
2022-10-01T11:52:53.825Z,99913.09
2022-10-01T11:55:45.180Z,99914.22
2022-10-01T11:58:54.329Z,99912.66
2022-10-01T12:01:24.055Z,99909.34
2022-10-01T12:03:53.761Z,99906.63
2022-10-01T12:06:34.091Z,99907.59
2022-10-01T12:09:34.983Z,99898.41
2022-10-01T12:12:06.896Z,99897.03
2022-10-01T12:14:33.409Z,99909.34
2022-10-01T12:17:18.841Z,99901.88
2022-10-01T12:19:50.419Z,99904.88
2022-10-01T12:22:27.375Z,99904.03
2022-10-01T12:24:54.461Z,99908.94
2022-10-01T12:27:40.626Z,99907.03
2022-10-01T12:30:21.185Z,99897.13
2022-10-01T12:32:59.876Z,99887.75
2022-10-01T12:35:36.403Z,99889.28
2022-10-01T12:38:02.993Z,99889.41
2022-10-01T12:40:32.282Z,99890.25
2022-10-01T12:43:52.973Z,99892.38
2022-10-01T12:46:41.604Z,99886.78
2022-10-01T12:49:41.614Z,99886.66
2022-10-01T12:52:39.130Z,99893.69
2022-10-01T12:55:29.479Z,99883.47
2022-10-01T12:58:12.911Z,99882.88
2022-10-01T13:00:51.809Z,99888.94
2022-10-01T13:03:28.900Z,99885.91
2022-10-01T13:06:08.876Z,99885.72
2022-10-01T13:08:38.426Z,99875.47
2022-10-01T13:11:24.239Z,99887.25
2022-10-01T13:13:52.519Z,99890.66
2022-10-01T13:16:32.648Z,99888.38
2022-10-01T13:19:17.964Z,99891.84
2022-10-01T13:22:07.904Z,99886.06
2022-10-01T13:25:01.000Z,99886.25
2022-10-01T13:27:47.293Z,99890.78
2022-10-01T13:30:19.031Z,99888.81
2022-10-01T13:32:58.490Z,99884.19
2022-10-01T13:35:36.424Z,99879.97
2022-10-01T13:38:17.272Z,99884.16
2022-10-01T13:40:44.641Z,99883.56
2022-10-01T13:43:20.398Z,99883.13
2022-10-01T13:45:49.772Z,99881.31
2022-10-01T13:48:34.821Z,99885.03
2022-10-01T13:51:13.445Z,99881.53
2022-10-01T13:53:43.096Z,99884.03
2022-10-01T13:56:12.946Z,99880.47
2022-10-01T13:58:44.429Z,99890.81
2022-10-01T14:01:22.881Z,99890.47
2022-10-01T14:04:09.177Z,99891.06
2022-10-01T14:06:36.219Z,99895.44
2022-10-01T14:09:15.356Z,99889.38
2022-10-01T14:12:07.843Z,99890.03
2022-10-01T14:14:54.470Z,99887.28
2022-10-01T14:17:23.039Z,99886.75
2022-10-01T14:19:50.947Z,99879.84
2022-10-01T14:22:23.635Z,99879.25
2022-10-01T14:25:23.608Z,99877.22
2022-10-01T14:27:57.729Z,99877.06
2022-10-01T14:30:33.097Z,99878.63
2022-10-01T14:33:13.607Z,99881.47
2022-10-01T14:36:03.231Z,99876.47
2022-10-01T14:38:31.011Z,99876.16
2022-10-01T14:40:57.617Z,99874.81
2022-10-01T14:43:26.849Z,99873.03
2022-10-01T14:46:02.080Z,99871.44
2022-10-01T14:48:31.440Z,99870.81
2022-10-01T14:51:01.545Z,99874.59
2022-10-01T14:53:31.062Z,99877.50
2022-10-01T14:56:02.237Z,99873.38
2022-10-01T14:58:45.215Z,99876.47
2022-10-01T15:01:21.800Z,99873.72
2022-10-01T15:03:50.434Z,99870.50
2022-10-01T15:06:22.310Z,99874.25
2022-10-01T15:08:51.478Z,99880.34
2022-10-01T15:11:30.375Z,99878.84
2022-10-01T15:14:03.699Z,99876.91
2022-10-01T15:16:30.659Z,99884.53
2022-10-01T15:18:59.355Z,99883.53
2022-10-01T15:21:50.514Z,99891.16
2022-10-01T15:24:40.942Z,99891.41
2022-10-01T15:27:13.742Z,99897.22
2022-10-01T15:29:45.179Z,99900.09
2022-10-01T15:32:17.989Z,99894.63
2022-10-01T15:34:52.407Z,99901.53
2022-10-01T15:37:25.274Z,99899.72
2022-10-01T15:39:52.645Z,99894.91
2022-10-01T15:42:30.525Z,99892.41
2022-10-01T15:45:09.618Z,99901.84
2022-10-01T15:47:43.847Z,99899.47
2022-10-01T15:50:16.415Z,99901.22
2022-10-01T15:52:55.939Z,99892.63
2022-10-01T15:55:28.129Z,99900.19
2022-10-01T15:58:00.037Z,99897.13
2022-10-01T16:00:39.498Z,99894.88
2022-10-01T16:03:43.484Z,99887.41
2022-10-01T16:06:32.862Z,99886.97
2022-10-01T16:09:27.981Z,99901.47
2022-10-01T16:12:02.861Z,99888.25
2022-10-01T16:14:46.891Z,99909.09
2022-10-01T16:17:23.534Z,99903.78
2022-10-01T16:20:00.255Z,99898.09
2022-10-01T16:22:32.988Z,99909.53
2022-10-01T16:25:01.560Z,99910.75
2022-10-01T16:27:49.998Z,99906.28
2022-10-01T16:30:22.044Z,99902.38
2022-10-01T16:32:49.268Z,99925.25
2022-10-01T16:35:15.973Z,99922.31
2022-10-01T16:37:43.077Z,99931.50
2022-10-01T16:40:15.194Z,99929.50
2022-10-01T16:42:43.514Z,99939.50
2022-10-01T16:45:15.913Z,99932.75
2022-10-01T16:47:42.829Z,99935.72
2022-10-01T16:50:15.588Z,99938.94
2022-10-01T16:52:42.831Z,99937.75
2022-10-01T16:55:24.797Z,99945.38
2022-10-01T16:57:54.517Z,99946.22
2022-10-01T17:00:23.257Z,99945.63
2022-10-01T17:02:49.900Z,99949.69
2022-10-01T17:05:22.489Z,99955.03
2022-10-01T17:07:49.612Z,99953.75
2022-10-01T17:10:17.745Z,99955.78
2022-10-01T17:12:44.760Z,99951.84
2022-10-01T17:15:15.833Z,99951.13
2022-10-01T17:17:42.412Z,99948.88
2022-10-01T17:20:09.853Z,99947.06
2022-10-01T17:22:37.318Z,99948.75
2022-10-01T17:25:04.285Z,99952.06
2022-10-01T17:27:30.961Z,99948.13
2022-10-01T17:29:57.568Z,99948.81
2022-10-01T17:32:24.230Z,99953.00
2022-10-01T17:34:54.525Z,99950.38
2022-10-01T17:37:23.893Z,99952.03
2022-10-01T17:39:50.655Z,99955.00
2022-10-01T17:42:18.106Z,99946.31
2022-10-01T17:44:45.966Z,99960.56
2022-10-01T17:47:12.803Z,99960.81
2022-10-01T17:49:39.769Z,99956.41
2022-10-01T17:52:06.336Z,99961.28
2022-10-01T17:54:33.322Z,99961.97
2022-10-01T17:56:59.965Z,99970.63
2022-10-01T17:59:26.570Z,99958.81
2022-10-01T18:01:53.651Z,99973.97
2022-10-01T18:04:20.317Z,99976.69
2022-10-01T18:06:48.818Z,99978.06
2022-10-01T18:09:15.841Z,100002.25
2022-10-01T18:11:42.435Z,100000.09
2022-10-01T18:14:09.118Z,99997.59
2022-10-01T18:16:36.264Z,100000.09
2022-10-01T18:21:51.167Z,100008.44
2022-10-01T18:24:18.406Z,100022.63
2022-10-01T18:26:45.852Z,100013.41
2022-10-01T18:29:21.740Z,100013.41
2022-10-01T18:31:52.616Z,100019.78
2022-10-01T18:34:28.726Z,100035.94
2022-10-01T18:37:01.968Z,100045.84
2022-10-01T18:39:43.259Z,100038.03
2022-10-01T18:42:49.437Z,100038.72
2022-10-01T18:45:21.725Z,100054.22
2022-10-01T18:47:56.214Z,100060.72
2022-10-01T18:50:41.317Z,100064.03
2022-10-01T18:53:26.610Z,100072.72
2022-10-01T18:56:04.397Z,100085.72
2022-10-01T18:58:57.045Z,100088.28
2022-10-01T19:01:40.611Z,100090.63
2022-10-01T19:04:13.153Z,100106.75
2022-10-01T19:06:57.889Z,100100.13
2022-10-01T19:10:13.558Z,100112.50
2022-10-01T19:13:05.665Z,100117.84
2022-10-01T19:15:42.088Z,100124.53
2022-10-01T19:18:21.740Z,100137.41
2022-10-01T19:21:12.476Z,100136.97
2022-10-01T19:23:41.779Z,100142.50
2022-10-01T19:26:26.695Z,100141.00
2022-10-01T19:29:20.701Z,100143.66
2022-10-01T19:32:02.901Z,100145.31
2022-10-01T19:34:50.016Z,100155.69
2022-10-01T19:37:27.942Z,100159.59
2022-10-01T19:40:05.724Z,100157.97
2022-10-01T19:42:38.403Z,100160.00
2022-10-01T19:45:25.989Z,100157.88
2022-10-01T19:48:08.805Z,100160.25
2022-10-01T19:50:40.777Z,100170.66
2022-10-01T19:53:31.051Z,100166.97
2022-10-01T19:56:00.524Z,100170.06
2022-10-01T19:58:27.659Z,100169.47
2022-10-01T20:00:57.084Z,100177.56
2022-10-01T20:03:32.832Z,100178.41
2022-10-01T20:06:06.055Z,100182.94
2022-10-01T20:08:52.649Z,100186.16
2022-10-01T20:11:29.310Z,100190.78
2022-10-01T20:14:56.742Z,100198.06
2022-10-01T20:17:42.970Z,100201.50
2022-10-01T20:20:09.929Z,100204.72
2022-10-01T20:23:02.650Z,100211.59
2022-10-01T20:25:37.887Z,100222.44
2022-10-01T20:28:26.021Z,100226.81
2022-10-01T20:31:20.018Z,100230.13
2022-10-01T20:34:10.502Z,100238.38
2022-10-01T20:36:46.160Z,100238.63
2022-10-01T20:39:25.422Z,100251.66
2022-10-01T20:41:54.295Z,100250.22
2022-10-01T20:44:33.754Z,100249.94
2022-10-01T20:47:06.595Z,100254.78
2022-10-01T20:50:09.736Z,100257.41
2022-10-01T20:53:08.940Z,100258.47
2022-10-01T20:55:52.902Z,100259.13
2022-10-01T20:58:31.226Z,100264.72
2022-10-01T21:01:08.164Z,100260.63
2022-10-01T21:03:39.379Z,100273.88
2022-10-01T21:06:30.888Z,100276.09
2022-10-01T21:09:00.017Z,100278.72
2022-10-01T21:11:33.612Z,100276.28
2022-10-01T21:14:20.298Z,100282.34
2022-10-01T21:17:07.650Z,100289.91
2022-10-01T21:20:18.181Z,100299.13
2022-10-01T21:22:59.895Z,100307.75
2022-10-01T21:25:33.941Z,100312.06
2022-10-01T21:28:19.409Z,100315.81
2022-10-01T21:30:57.045Z,100320.31
2022-10-01T21:33:29.471Z,100325.66
2022-10-01T21:36:09.683Z,100328.66
2022-10-01T21:38:54.398Z,100333.78
2022-10-01T21:41:48.378Z,100337.25
2022-10-01T21:44:36.185Z,100346.16
2022-10-01T21:47:41.306Z,100339.09
2022-10-01T21:50:18.792Z,100342.50
2022-10-01T21:52:57.545Z,100353.47
2022-10-01T21:55:30.170Z,100360.41
2022-10-01T21:58:21.053Z,100362.66
2022-10-01T22:01:08.438Z,100361.13
2022-10-01T22:03:52.235Z,100373.91
2022-10-01T22:06:36.302Z,100372.34
2022-10-01T22:09:13.237Z,100384.91
2022-10-01T22:11:45.934Z,100377.47
2022-10-01T22:14:21.372Z,100382.69
2022-10-01T22:17:08.529Z,100392.22
2022-10-01T22:19:39.441Z,100392.34
2022-10-01T22:22:22.521Z,100399.34
2022-10-01T22:24:52.929Z,100410.84
2022-10-01T22:27:37.100Z,100403.03
2022-10-01T22:30:09.708Z,100413.06
2022-10-01T22:33:05.561Z,100434.41
2022-10-01T22:35:56.130Z,100440.06
2022-10-01T22:38:44.814Z,100439.13
2022-10-01T22:41:27.619Z,100446.63
2022-10-01T22:43:54.977Z,100446.63
2022-10-01T22:46:57.677Z,100447.16
2022-10-01T22:49:44.913Z,100451.25
2022-10-01T22:52:20.446Z,100455.47
2022-10-01T22:55:23.595Z,100464.03
2022-10-01T22:58:22.483Z,100457.44
2022-10-01T23:00:55.501Z,100462.97
2022-10-01T23:04:06.067Z,100472.31
2022-10-01T23:07:05.799Z,100466.13
2022-10-01T23:09:41.596Z,100473.97
2022-10-01T23:12:26.490Z,100480.25
2022-10-01T23:15:11.581Z,100478.66
2022-10-01T23:17:54.257Z,100491.63
2022-10-01T23:20:32.970Z,100493.09
2022-10-01T23:23:23.815Z,100495.91
2022-10-01T23:25:50.625Z,100499.16
2022-10-01T23:28:39.284Z,100502.31
2022-10-01T23:31:33.511Z,100506.19
2022-10-01T23:34:31.799Z,100507.88
2022-10-01T23:37:23.371Z,100517.16
2022-10-01T23:40:01.654Z,100509.75
2022-10-01T23:43:09.769Z,100516.34
2022-10-01T23:45:55.719Z,100527.44
2022-10-01T23:48:30.839Z,100523.84
2022-10-01T23:51:29.994Z,100520.41
2022-10-01T23:54:05.887Z,100528.59
2022-10-01T23:56:57.720Z,100523.47
2022-10-01T23:59:43.025Z,100526.91
